createdAt,value
2022-09-27T03:03:10.010Z,4.32
2022-09-27T03:05:54.928Z,4.38
2022-09-27T03:08:22.238Z,4.30
2022-09-27T03:10:49.536Z,4.60
2022-09-27T03:13:16.798Z,4.15
2022-09-27T03:15:44.099Z,4.10
2022-09-27T03:18:11.326Z,4.30
2022-09-27T03:20:38.549Z,4.40
2022-09-27T03:23:05.736Z,4.18
2022-09-27T03:25:32.974Z,4.40
2022-09-27T03:28:00.240Z,3.60
2022-09-27T03:30:27.483Z,4.10
2022-09-27T03:32:54.708Z,4.15
2022-09-27T03:35:21.957Z,4.05
2022-09-27T03:37:49.557Z,4.25
2022-09-27T03:40:17.455Z,4.45
2022-09-27T03:42:49.468Z,4.40
2022-09-27T03:45:17.979Z,4.20
2022-09-27T03:47:45.179Z,4.10
2022-09-27T03:50:13.036Z,4.18
2022-09-27T03:52:40.327Z,3.90
2022-09-27T03:55:07.826Z,3.72
2022-09-27T03:57:35.200Z,3.88
2022-09-27T04:00:03.042Z,4.22
2022-09-27T04:02:30.320Z,4.13
2022-09-27T04:04:57.590Z,4.32
2022-09-27T04:07:24.821Z,3.60
2022-09-27T04:09:52.025Z,3.70
2022-09-27T04:12:19.373Z,3.80
2022-09-27T04:14:46.584Z,3.67
2022-09-27T04:17:13.868Z,3.80
2022-09-27T04:19:41.100Z,3.20
2022-09-27T04:22:08.358Z,3.20
2022-09-27T04:24:35.533Z,2.80
2022-09-27T04:27:02.749Z,2.80
2022-09-27T04:29:30.000Z,2.63
2022-09-27T04:31:57.213Z,2.80
2022-09-27T04:34:45.965Z,3.10
2022-09-27T04:37:13.960Z,2.95
2022-09-27T04:39:41.174Z,2.40
2022-09-27T04:42:09.320Z,2.90
2022-09-27T04:44:36.496Z,2.67
2022-09-27T04:47:03.835Z,3.00
2022-09-27T04:49:31.027Z,2.80
2022-09-27T04:51:58.222Z,3.28
2022-09-27T04:54:25.527Z,2.90
2022-09-27T04:56:52.805Z,2.20
2022-09-27T04:59:20.132Z,2.90
2022-09-27T05:01:47.530Z,2.88
2022-09-27T05:04:15.389Z,3.05
2022-09-27T05:06:42.642Z,2.90
2022-09-27T05:09:09.845Z,2.70
2022-09-27T05:11:38.097Z,2.70
2022-09-27T05:14:05.894Z,2.47
2022-09-27T05:16:34.435Z,2.70
2022-09-27T05:19:02.313Z,2.83
2022-09-27T05:21:29.522Z,2.78
2022-09-27T05:23:56.817Z,3.33
2022-09-27T05:26:23.981Z,3.35
2022-09-27T05:28:51.248Z,3.00
2022-09-27T05:31:18.573Z,3.00
2022-09-27T05:33:45.846Z,2.40
2022-09-27T05:36:13.125Z,2.83
2022-09-27T05:38:41.840Z,2.78
2022-09-27T05:41:09.396Z,2.38
2022-09-27T05:43:36.643Z,2.85
2022-09-27T05:46:05.468Z,2.85
2022-09-27T05:48:32.831Z,2.72
2022-09-27T05:51:00.095Z,3.72
2022-09-27T05:53:27.347Z,3.13
2022-09-27T05:55:54.699Z,2.60
2022-09-27T05:58:21.930Z,2.90
2022-09-27T06:00:49.205Z,2.60
2022-09-27T06:03:17.263Z,2.90
2022-09-27T06:05:47.949Z,2.53
2022-09-27T06:08:20.287Z,2.40
2022-09-27T06:10:47.990Z,2.65
2022-09-27T06:13:16.495Z,2.80
2022-09-27T06:15:45.286Z,2.80
2022-09-27T06:18:18.030Z,2.80
2022-09-27T06:20:45.811Z,2.80
2022-09-27T06:23:16.203Z,3.03
2022-09-27T06:25:43.508Z,3.00
2022-09-27T06:28:11.549Z,3.20
2022-09-27T06:30:41.471Z,3.30
2022-09-27T06:33:12.702Z,2.63
2022-09-27T06:35:41.943Z,2.92
2022-09-27T06:38:15.580Z,2.65
2022-09-27T06:40:47.040Z,2.65
2022-09-27T06:43:20.485Z,3.40
2022-09-27T06:45:47.978Z,2.90
2022-09-27T06:48:17.123Z,3.80
2022-09-27T06:50:46.518Z,2.97
2022-09-27T06:53:16.089Z,3.13
2022-09-27T06:55:43.349Z,3.50
2022-09-27T06:58:30.338Z,3.50
2022-09-27T07:00:58.732Z,3.90
2022-09-27T07:03:38.909Z,3.60
2022-09-27T07:06:16.441Z,3.65
2022-09-27T07:08:43.864Z,3.10
2022-09-27T07:11:11.036Z,2.80
2022-09-27T07:13:42.780Z,2.92
2022-09-27T07:16:16.252Z,3.17
2022-09-27T07:18:43.770Z,2.88
2022-09-27T07:21:12.555Z,3.67
2022-09-27T07:23:39.798Z,3.10
2022-09-27T07:26:08.398Z,2.90
2022-09-27T07:28:35.972Z,3.47
2022-09-27T07:31:04.041Z,2.65
2022-09-27T07:33:32.372Z,2.58
2022-09-27T07:35:59.701Z,2.92
2022-09-27T07:38:27.123Z,3.00
2022-09-27T07:40:54.410Z,2.97
2022-09-27T07:43:21.704Z,3.20
2022-09-27T07:45:49.214Z,2.97
2022-09-27T07:48:17.240Z,3.42
2022-09-27T07:50:44.625Z,3.42
2022-09-27T07:53:13.775Z,2.83
2022-09-27T07:55:42.340Z,2.40
2022-09-27T07:58:11.723Z,2.88
2022-09-27T08:00:40.802Z,3.10
2022-09-27T08:03:16.656Z,2.40
2022-09-27T08:05:45.696Z,2.75
2022-09-27T08:08:13.920Z,2.90
2022-09-27T08:10:44.350Z,2.88
2022-09-27T08:13:11.963Z,3.50
2022-09-27T08:15:39.196Z,2.90
2022-09-27T08:18:09.389Z,3.03
2022-09-27T08:20:36.944Z,3.70
2022-09-27T08:23:04.301Z,2.75
2022-09-27T08:25:31.953Z,2.50
2022-09-27T08:28:01.483Z,2.50
2022-09-27T08:30:31.146Z,2.53
2022-09-27T08:32:59.735Z,2.50
2022-09-27T08:35:29.198Z,2.65
2022-09-27T08:37:59.007Z,2.50
2022-09-27T08:40:48.697Z,2.35
2022-09-27T08:43:28.107Z,2.50
2022-09-27T08:46:22.923Z,2.28
2022-09-27T08:48:57.521Z,2.40
2022-09-27T08:51:31.458Z,2.38
2022-09-27T08:54:08.216Z,2.10
2022-09-27T08:56:36.438Z,2.70
2022-09-27T08:59:14.663Z,3.00
2022-09-27T09:01:42.732Z,2.13
2022-09-27T09:04:12.124Z,2.10
2022-09-27T09:07:29.768Z,2.60
2022-09-27T09:10:39.950Z,2.65
2022-09-27T09:13:19.753Z,2.28
2022-09-27T09:16:15.975Z,2.55
2022-09-27T09:18:59.281Z,2.97
2022-09-27T09:21:29.192Z,2.25
2022-09-27T09:24:02.064Z,3.40
2022-09-27T09:26:50.218Z,2.70
2022-09-27T09:29:54.827Z,2.60
2022-09-27T09:32:34.663Z,2.50
2022-09-27T09:35:07.048Z,2.03
2022-09-27T09:37:49.831Z,2.70
2022-09-27T09:40:31.320Z,2.20
2022-09-27T09:43:18.470Z,2.60
2022-09-27T09:45:50.536Z,2.70
2022-09-27T09:48:53.441Z,2.70
2022-09-27T09:51:27.301Z,3.22
2022-09-27T09:54:13.841Z,2.75
2022-09-27T09:56:47.705Z,3.00
2022-09-27T09:59:25.782Z,3.75
2022-09-27T10:01:55.934Z,2.80
2022-09-27T10:04:28.803Z,2.92
2022-09-27T10:06:59.127Z,3.13
2022-09-27T10:09:28.428Z,2.95
2022-09-27T10:11:55.974Z,2.90
2022-09-27T10:14:23.280Z,3.42
2022-09-27T10:16:59.512Z,2.80
2022-09-27T10:19:35.510Z,2.70
2022-09-27T10:22:12.224Z,3.05
2022-09-27T10:25:10.850Z,3.08
2022-09-27T10:27:42.540Z,2.70
2022-09-27T10:30:33.970Z,2.83
2022-09-27T10:33:06.792Z,2.65
2022-09-27T10:35:37.736Z,2.72
2022-09-27T10:38:21.206Z,2.50
2022-09-27T10:40:50.228Z,2.60
2022-09-27T10:43:37.765Z,2.78
2022-09-27T10:46:27.207Z,2.20
2022-09-27T10:49:25.341Z,3.08
2022-09-27T10:52:02.475Z,2.97
2022-09-27T10:54:37.901Z,3.30
2022-09-27T10:57:25.455Z,2.80
2022-09-27T11:00:02.616Z,3.30
2022-09-27T11:02:33.942Z,3.40
2022-09-27T11:05:16.203Z,3.03
2022-09-27T11:07:57.881Z,3.05
2022-09-27T11:10:34.025Z,4.10
2022-09-27T11:13:16.663Z,4.97
2022-09-27T11:15:55.741Z,4.30
2022-09-27T11:18:43.688Z,3.70
2022-09-27T11:21:32.840Z,3.42
2022-09-27T11:24:08.788Z,3.20
2022-09-27T11:26:47.918Z,3.20
2022-09-27T11:29:26.541Z,3.35
2022-09-27T11:32:15.129Z,3.40
2022-09-27T11:34:54.127Z,3.33
2022-09-27T11:37:30.216Z,3.25
2022-09-27T11:40:31.987Z,3.33
2022-09-27T11:43:08.445Z,3.20
2022-09-27T11:46:17.905Z,3.30
2022-09-27T11:49:28.331Z,3.25
2022-09-27T11:52:20.220Z,3.13
2022-09-27T11:55:09.260Z,2.88
2022-09-27T11:57:45.213Z,3.55
2022-09-27T12:00:18.504Z,3.00
2022-09-27T12:02:45.649Z,3.38
2022-09-27T12:05:31.407Z,3.03
2022-09-27T12:08:06.040Z,3.33
2022-09-27T12:10:35.793Z,3.47
2022-09-27T12:13:04.381Z,3.30
2022-09-27T12:15:36.541Z,2.90
2022-09-27T12:18:39.351Z,3.20
2022-09-27T12:21:09.666Z,2.95
2022-09-27T12:24:06.218Z,2.75
2022-09-27T12:26:39.855Z,3.05
2022-09-27T12:29:22.105Z,2.90
2022-09-27T12:32:02.022Z,3.30
2022-09-27T12:34:39.953Z,2.70
2022-09-27T12:37:16.953Z,3.35
2022-09-27T12:39:59.924Z,3.00
2022-09-27T12:42:59.064Z,2.80
2022-09-27T12:45:39.964Z,2.60
2022-09-27T12:48:35.858Z,2.80
2022-09-27T12:51:24.175Z,3.05
2022-09-27T12:53:56.932Z,3.25
2022-09-27T12:56:32.813Z,3.42
2022-09-27T12:59:12.014Z,2.50
2022-09-27T13:02:00.281Z,3.42
2022-09-27T13:04:53.958Z,2.90
2022-09-27T13:07:52.578Z,2.20
2022-09-27T13:10:46.166Z,2.72
2022-09-27T13:13:16.879Z,2.38
2022-09-27T13:15:46.409Z,2.65
2022-09-27T13:18:38.055Z,2.60
2022-09-27T13:21:07.207Z,2.80
2022-09-27T13:23:40.319Z,2.67
2022-09-27T13:26:09.687Z,2.50
2022-09-27T13:28:48.669Z,2.10
2022-09-27T13:31:16.677Z,2.00
2022-09-27T13:33:49.323Z,2.65
2022-09-27T13:36:16.443Z,2.60
2022-09-27T13:38:57.796Z,2.63
2022-09-27T13:41:24.998Z,2.75
2022-09-27T13:44:09.960Z,2.78
2022-09-27T13:46:57.271Z,2.90
2022-09-27T13:49:38.234Z,2.90
2022-09-27T13:52:23.849Z,2.40
2022-09-27T13:55:02.457Z,2.83
2022-09-27T13:58:03.644Z,2.10
2022-09-27T14:00:42.626Z,3.00
2022-09-27T14:03:12.560Z,2.50
2022-09-27T14:05:52.200Z,2.80
2022-09-27T14:08:40.316Z,2.80
2022-09-27T14:11:17.257Z,3.03
2022-09-27T14:13:47.066Z,3.53
2022-09-27T14:16:17.090Z,3.20
2022-09-27T14:18:58.250Z,3.13
2022-09-27T14:21:37.710Z,3.20
2022-09-27T14:24:23.587Z,3.00
2022-09-27T14:27:03.545Z,3.00
2022-09-27T14:29:37.943Z,3.00
2022-09-27T14:32:09.418Z,2.75
2022-09-27T14:34:36.565Z,3.20
2022-09-27T14:37:23.004Z,2.95
2022-09-27T14:40:06.676Z,2.67
2022-09-27T14:42:36.940Z,2.85
2022-09-27T14:45:20.163Z,2.80
2022-09-27T14:47:49.375Z,2.90
2022-09-27T14:50:19.981Z,4.15
2022-09-27T14:52:49.087Z,3.42
2022-09-27T14:55:19.273Z,3.25
2022-09-27T14:57:55.764Z,2.20
2022-09-27T15:00:26.531Z,3.00
2022-09-27T15:02:55.935Z,2.72
2022-09-27T15:05:26.737Z,2.83
2022-09-27T15:07:58.208Z,3.55
2022-09-27T15:10:28.273Z,3.00
2022-09-27T15:12:59.995Z,2.95
2022-09-27T15:15:39.885Z,3.58
2022-09-27T15:18:34.546Z,3.83
2022-09-27T15:21:02.032Z,3.97
2022-09-27T15:23:34.853Z,3.72
2022-09-27T15:26:18.484Z,4.43
2022-09-27T15:28:47.823Z,3.65
2022-09-27T15:31:15.434Z,3.77
2022-09-27T15:33:52.662Z,5.07
2022-09-27T15:36:49.929Z,3.00
2022-09-27T15:39:29.186Z,3.60
2022-09-27T15:42:05.760Z,2.90
2022-09-27T15:44:44.282Z,3.78
2022-09-27T15:47:34.469Z,4.00
2022-09-27T15:50:16.929Z,3.78
2022-09-27T15:52:52.258Z,3.20
2022-09-27T15:55:25.232Z,3.50
2022-09-27T15:58:16.701Z,3.40
2022-09-27T16:00:55.497Z,4.13
2022-09-27T16:03:24.509Z,5.20
2022-09-27T16:05:52.297Z,5.07
2022-09-27T16:08:19.491Z,4.50
2022-09-27T16:10:50.298Z,5.03
2022-09-27T16:13:17.461Z,5.57
2022-09-27T16:15:45.790Z,4.30
2022-09-27T16:18:13.971Z,4.60
2022-09-27T16:20:41.205Z,4.50
2022-09-27T16:23:08.356Z,3.95
2022-09-27T16:25:35.645Z,3.45
2022-09-27T16:28:05.274Z,3.20
2022-09-27T16:30:33.242Z,3.70
2022-09-27T16:33:00.387Z,2.85
2022-09-27T16:35:28.353Z,3.45
2022-09-27T16:37:55.608Z,3.80
2022-09-27T16:40:23.354Z,3.53
2022-09-27T16:42:50.591Z,2.80
2022-09-27T16:45:19.514Z,3.58
2022-09-27T16:47:47.493Z,2.92
2022-09-27T16:50:34.460Z,2.90
2022-09-27T16:53:01.849Z,3.22
2022-09-27T16:55:29.377Z,3.97
2022-09-27T16:57:59.789Z,3.90
2022-09-27T17:00:27.677Z,6.00
2022-09-27T17:02:55.002Z,5.80
2022-09-27T17:05:23.132Z,4.45
2022-09-27T17:07:54.810Z,3.67
2022-09-27T17:10:23.140Z,3.35
2022-09-27T17:12:51.123Z,3.60
2022-09-27T17:15:18.532Z,3.70
2022-09-27T17:17:49.253Z,4.20
2022-09-27T17:20:16.716Z,3.67
2022-09-27T17:22:43.861Z,3.85
2022-09-27T17:25:11.049Z,4.10
2022-09-27T17:27:38.273Z,5.68
2022-09-27T17:30:06.915Z,6.00
2022-09-27T17:32:34.910Z,3.67
2022-09-27T17:35:02.714Z,3.40
2022-09-27T17:37:30.277Z,3.30
2022-09-27T17:39:57.727Z,2.97
2022-09-27T17:42:25.389Z,3.20
2022-09-27T17:44:52.757Z,6.70
2022-09-27T17:47:38.606Z,3.07
2022-09-27T17:50:24.530Z,2.97
2022-09-27T17:52:53.442Z,2.57
2022-09-27T17:55:21.708Z,2.88
2022-09-27T17:57:49.817Z,2.30
2022-09-27T18:00:18.623Z,2.87
2022-09-27T18:02:46.059Z,2.55
2022-09-27T18:05:13.392Z,2.75
2022-09-27T18:07:40.601Z,2.60
2022-09-27T18:10:07.975Z,2.85
2022-09-27T18:12:35.330Z,2.73
2022-09-27T18:15:03.171Z,2.47
2022-09-27T18:17:30.800Z,3.65
2022-09-27T18:19:59.885Z,2.70
2022-09-27T18:22:31.219Z,3.10
2022-09-27T18:24:58.743Z,2.70
2022-09-27T18:27:25.942Z,3.08
2022-09-27T18:29:53.937Z,3.20
2022-09-27T18:32:21.117Z,3.20
2022-09-27T18:34:48.317Z,4.60
2022-09-27T18:37:15.532Z,6.60
2022-09-27T18:39:42.689Z,7.57
2022-09-27T18:42:09.866Z,6.17
2022-09-27T18:44:37.035Z,6.25
2022-09-27T18:47:04.339Z,4.82
2022-09-27T18:49:33.987Z,4.10
2022-09-27T18:52:02.656Z,3.00
2022-09-27T18:54:30.158Z,3.10
2022-09-27T18:56:57.291Z,2.70
2022-09-27T18:59:24.540Z,3.30
2022-09-27T19:01:52.296Z,3.10
2022-09-27T19:04:26.848Z,2.80
2022-09-27T19:06:55.642Z,3.20
2022-09-27T19:09:23.363Z,3.85
2022-09-27T19:11:50.549Z,2.83
2022-09-27T19:14:19.912Z,2.78
2022-09-27T19:16:48.357Z,2.70
2022-09-27T19:19:17.416Z,2.72
2022-09-27T19:21:45.547Z,2.60
2022-09-27T19:24:14.079Z,3.37
2022-09-27T19:26:41.587Z,2.77
2022-09-27T19:29:08.884Z,2.83
2022-09-27T19:31:36.406Z,2.70
2022-09-27T19:34:04.844Z,3.08
2022-09-27T19:36:32.012Z,2.80
2022-09-27T19:38:59.888Z,2.97
2022-09-27T19:41:27.368Z,2.42
2022-09-27T19:43:55.722Z,2.72
2022-09-27T19:46:24.883Z,2.67
2022-09-27T19:48:52.931Z,2.83
2022-09-27T19:51:22.715Z,3.00
2022-09-27T19:53:51.118Z,3.30
2022-09-27T19:56:19.260Z,3.20
2022-09-27T19:58:46.483Z,2.92
2022-09-27T20:01:16.575Z,3.00
2022-09-27T20:03:44.451Z,3.40
2022-09-27T20:06:14.484Z,3.05
2022-09-27T20:08:43.062Z,2.78
2022-09-27T20:11:12.859Z,2.80
2022-09-27T20:13:40.337Z,2.60
2022-09-27T20:16:17.439Z,2.60
2022-09-27T20:18:49.721Z,2.60
2022-09-27T20:21:18.279Z,3.10
2022-09-27T20:23:49.102Z,3.40
2022-09-27T20:26:18.821Z,2.80
2022-09-27T20:28:50.822Z,2.83
2022-09-27T20:31:20.421Z,2.95
2022-09-27T20:33:50.711Z,2.87
2022-09-27T20:36:22.220Z,3.00
2022-09-27T20:38:58.213Z,2.80
2022-09-27T20:41:30.922Z,2.90
2022-09-27T20:44:00.490Z,2.80
2022-09-27T20:46:28.056Z,2.95
2022-09-27T20:48:58.768Z,2.88
2022-09-27T20:51:27.421Z,3.00
2022-09-27T20:53:54.888Z,3.20
2022-09-27T20:56:23.522Z,2.70
2022-09-27T20:58:53.067Z,2.67
